createdAt,value
2023-03-25T00:01:50.318Z,18.40
2023-03-25T00:04:17.880Z,18.40
2023-03-25T00:06:44.520Z,18.50
2023-03-25T00:09:11.588Z,18.50
2023-03-25T00:11:38.189Z,18.50
2023-03-25T00:14:04.788Z,18.50
2023-03-25T00:16:31.425Z,18.50
2023-03-25T00:19:00.088Z,18.50
2023-03-25T00:21:27.300Z,18.20
2023-03-25T00:23:53.875Z,18.40
2023-03-25T00:26:20.456Z,18.40
2023-03-25T00:28:47.054Z,18.40
2023-03-25T00:31:14.617Z,18.40
2023-03-25T00:33:44.378Z,18.50
2023-03-25T00:36:13.635Z,18.40
2023-03-25T00:38:43.339Z,18.40
2023-03-25T00:41:37.173Z,18.40
2023-03-25T00:44:04.068Z,18.30
2023-03-25T00:46:31.851Z,18.40
2023-03-25T00:48:59.087Z,18.40
2023-03-25T00:51:26.442Z,18.40
2023-03-25T00:53:54.299Z,18.30
2023-03-25T00:56:24.305Z,18.50
2023-03-25T00:58:51.299Z,18.30
2023-03-25T01:01:23.264Z,18.30
2023-03-25T01:03:57.679Z,18.30
2023-03-25T01:06:28.614Z,18.30
2023-03-25T01:08:58.612Z,18.30
2023-03-25T01:11:26.897Z,18.30
2023-03-25T01:13:54.674Z,18.40
2023-03-25T01:16:21.502Z,18.30
2023-03-25T01:18:48.351Z,18.40
2023-03-25T01:21:15.354Z,18.30
2023-03-25T01:23:41.936Z,18.40
2023-03-25T01:26:08.732Z,18.20
2023-03-25T01:28:35.527Z,18.20
2023-03-25T01:31:06.767Z,18.20
2023-03-25T01:33:33.821Z,18.30
2023-03-25T01:36:00.775Z,18.30
2023-03-25T01:38:27.582Z,18.30
2023-03-25T01:40:54.441Z,18.30
2023-03-25T01:43:21.723Z,18.30
2023-03-25T01:45:49.154Z,18.30
2023-03-25T01:48:22.823Z,18.30
2023-03-25T01:50:54.316Z,18.30
2023-03-25T01:53:21.049Z,18.20
2023-03-25T01:55:48.079Z,18.20
2023-03-25T01:58:15.754Z,18.30
2023-03-25T02:00:44.074Z,18.30
2023-03-25T02:03:11.861Z,18.30
2023-03-25T02:05:47.434Z,18.50
2023-03-25T02:08:15.795Z,18.30
2023-03-25T02:10:45.644Z,18.20
2023-03-25T02:13:12.723Z,18.20
2023-03-25T02:15:52.414Z,18.20
2023-03-25T02:18:30.139Z,18.30
2023-03-25T02:21:02.975Z,18.30
2023-03-25T02:23:41.862Z,18.30
2023-03-25T02:26:29.787Z,18.30
2023-03-25T02:28:57.208Z,18.30
2023-03-25T02:31:42.693Z,18.30
2023-03-25T02:34:12.781Z,18.30
2023-03-25T02:36:39.709Z,18.10
2023-03-25T02:39:15.438Z,18.30
2023-03-25T02:42:02.332Z,18.30
2023-03-25T02:44:44.941Z,18.30
2023-03-25T02:47:16.152Z,18.30
2023-03-25T02:49:44.763Z,18.30
2023-03-25T02:52:13.634Z,18.30
2023-03-25T02:54:41.534Z,18.30
2023-03-25T02:57:09.827Z,18.30
2023-03-25T02:59:38.241Z,18.30
2023-03-25T03:02:08.023Z,18.40
2023-03-25T03:04:48.981Z,18.30
2023-03-25T03:07:19.794Z,18.30
2023-03-25T03:09:49.520Z,18.40
2023-03-25T03:12:28.362Z,18.30
2023-03-25T03:15:01.309Z,18.30
2023-03-25T03:17:28.050Z,18.40
2023-03-25T03:19:57.616Z,18.30
2023-03-25T03:22:42.515Z,18.30
2023-03-25T03:25:22.300Z,18.30
2023-03-25T03:27:55.387Z,18.10
2023-03-25T03:30:24.865Z,18.40
2023-03-25T03:33:01.102Z,18.40
2023-03-25T03:35:31.554Z,18.40
2023-03-25T03:38:00.668Z,18.50
2023-03-25T03:40:28.690Z,18.50
2023-03-25T03:43:01.525Z,18.50
2023-03-25T03:45:34.706Z,18.50
2023-03-25T03:48:03.609Z,18.50
2023-03-25T03:50:32.428Z,18.50
2023-03-25T03:53:10.689Z,18.60
2023-03-25T03:55:41.804Z,18.50
2023-03-25T03:58:15.251Z,18.50
2023-03-25T04:00:44.272Z,18.50
2023-03-25T04:03:24.433Z,18.50
2023-03-25T04:05:53.947Z,18.50
2023-03-25T04:08:32.361Z,18.50
2023-03-25T04:11:06.288Z,18.50
2023-03-25T04:13:35.106Z,18.50
2023-03-25T04:16:01.913Z,18.50
2023-03-25T04:18:28.570Z,18.50
2023-03-25T04:20:55.531Z,18.50
2023-03-25T04:23:22.581Z,18.50
2023-03-25T04:25:55.159Z,18.50
2023-03-25T04:28:23.900Z,18.50
2023-03-25T04:30:55.481Z,18.60
2023-03-25T04:33:25.293Z,18.40
2023-03-25T04:35:52.501Z,18.40
2023-03-25T04:38:19.434Z,18.80
2023-03-25T04:40:47.027Z,18.90
2023-03-25T04:43:14.541Z,18.40
2023-03-25T04:45:49.540Z,18.40
2023-03-25T04:48:20.813Z,18.40
2023-03-25T04:50:48.209Z,18.40
2023-03-25T04:53:14.771Z,18.40
2023-03-25T04:55:47.993Z,18.40
2023-03-25T04:58:15.900Z,18.40
2023-03-25T05:00:45.949Z,18.30
2023-03-25T05:03:12.622Z,18.30
2023-03-25T05:05:39.387Z,18.30
2023-03-25T05:08:05.963Z,18.30
2023-03-25T05:10:32.551Z,18.30
2023-03-25T05:13:00.241Z,18.30
2023-03-25T05:15:28.233Z,18.60
2023-03-25T05:17:54.969Z,18.30
2023-03-25T05:20:22.591Z,18.30
2023-03-25T05:22:49.168Z,18.30
2023-03-25T05:25:15.828Z,18.30
2023-03-25T05:27:42.683Z,18.30
2023-03-25T05:30:09.761Z,18.30
2023-03-25T05:32:37.055Z,18.30
2023-03-25T05:35:04.440Z,18.30
2023-03-25T05:37:31.543Z,18.30
2023-03-25T05:39:58.152Z,18.30
2023-03-25T05:42:25.145Z,18.30
2023-03-25T05:44:52.494Z,18.30
2023-03-25T05:47:21.761Z,18.30
2023-03-25T05:49:48.886Z,18.30
2023-03-25T05:52:17.005Z,18.40
2023-03-25T05:54:45.161Z,18.30
2023-03-25T05:57:12.483Z,18.30
2023-03-25T05:59:40.851Z,18.30
2023-03-25T06:02:12.197Z,18.30
2023-03-25T06:04:41.207Z,18.30
2023-03-25T06:07:09.418Z,18.30
2023-03-25T06:09:36.094Z,18.30
2023-03-25T06:12:03.935Z,18.40
2023-03-25T06:14:30.568Z,18.30
2023-03-25T06:16:57.224Z,18.30
2023-03-25T06:19:26.482Z,18.80
2023-03-25T06:21:53.542Z,18.30
2023-03-25T06:24:20.372Z,18.30
2023-03-25T06:26:46.958Z,18.30
2023-03-25T06:29:13.523Z,18.30
2023-03-25T06:31:40.377Z,18.70
2023-03-25T06:34:07.960Z,18.30
2023-03-25T06:36:34.745Z,18.30
2023-03-25T06:39:01.387Z,18.30
2023-03-25T06:41:28.216Z,18.30
2023-03-25T06:43:55.168Z,18.30
2023-03-25T06:46:21.815Z,18.50
2023-03-25T06:48:49.065Z,18.40
2023-03-25T06:51:16.168Z,18.40
2023-03-25T06:53:42.773Z,18.40
2023-03-25T06:56:09.606Z,18.50
2023-03-25T06:58:36.226Z,18.50
2023-03-25T07:01:07.053Z,18.60
2023-03-25T07:03:36.223Z,18.60
2023-03-25T07:06:03.291Z,18.60
2023-03-25T07:08:29.852Z,18.70
2023-03-25T07:11:03.124Z,18.60
2023-03-25T07:13:31.224Z,18.60
2023-03-25T07:15:58.487Z,18.60
2023-03-25T07:18:25.547Z,18.50
2023-03-25T07:20:52.219Z,18.50
2023-03-25T07:23:19.126Z,18.60
2023-03-25T07:25:46.006Z,18.50
2023-03-25T07:28:12.934Z,18.50
2023-03-25T07:30:39.542Z,18.50
2023-03-25T07:33:06.136Z,18.60
2023-03-25T07:35:32.887Z,18.40
2023-03-25T07:37:59.497Z,18.40
2023-03-25T07:40:26.059Z,18.40
2023-03-25T07:42:52.662Z,18.40
2023-03-25T07:45:19.618Z,18.90
2023-03-25T07:47:50.268Z,18.90
2023-03-25T07:50:18.121Z,18.40
2023-03-25T07:52:45.190Z,18.40
2023-03-25T07:55:13.101Z,18.70
2023-03-25T07:57:41.620Z,18.40
2023-03-25T08:00:08.906Z,18.40
2023-03-25T08:02:35.579Z,18.40
2023-03-25T08:05:04.616Z,18.40
2023-03-25T08:07:32.346Z,18.40
2023-03-25T08:09:58.959Z,18.40
2023-03-25T08:12:25.595Z,18.40
2023-03-25T08:14:52.469Z,18.50
2023-03-25T08:17:19.056Z,18.40
2023-03-25T08:19:46.228Z,18.40
2023-03-25T08:22:12.989Z,18.40
2023-03-25T08:24:39.593Z,18.40
2023-03-25T08:27:14.079Z,18.40
2023-03-25T08:29:43.289Z,18.60
2023-03-25T08:32:09.906Z,18.40
2023-03-25T08:34:39.678Z,18.40
2023-03-25T08:37:08.041Z,18.40
2023-03-25T08:39:39.673Z,18.40
2023-03-25T08:42:07.126Z,18.40
2023-03-25T08:44:33.924Z,18.40
2023-03-25T08:47:01.059Z,18.50
2023-03-25T08:49:27.670Z,18.40
2023-03-25T08:51:54.409Z,18.40
2023-03-25T08:54:21.493Z,18.40
2023-03-25T08:56:48.797Z,18.40
2023-03-25T08:59:15.525Z,18.40
2023-03-25T09:01:43.618Z,18.40
2023-03-25T09:04:10.918Z,18.40
2023-03-25T09:06:47.794Z,18.40
2023-03-25T09:09:26.509Z,18.40
2023-03-25T09:11:53.167Z,18.40
2023-03-25T09:14:19.789Z,18.40
2023-03-25T09:16:46.349Z,18.40
2023-03-25T09:19:13.408Z,18.40
2023-03-25T09:21:40.401Z,18.40
2023-03-25T09:24:07.953Z,18.30
2023-03-25T09:26:35.195Z,18.50
2023-03-25T09:29:01.932Z,18.40
2023-03-25T09:31:28.562Z,18.40
2023-03-25T09:33:55.138Z,18.50
2023-03-25T09:36:21.824Z,18.40
2023-03-25T09:38:48.913Z,18.40
2023-03-25T09:41:21.686Z,18.40
2023-03-25T09:44:12.243Z,18.40
2023-03-25T09:46:39.332Z,18.40
2023-03-25T09:49:10.777Z,18.40
2023-03-25T09:51:37.736Z,18.40
2023-03-25T09:54:18.565Z,18.40
2023-03-25T09:56:46.549Z,18.30
2023-03-25T09:59:18.918Z,18.30
2023-03-25T10:02:14.400Z,18.40
2023-03-25T10:04:49.076Z,18.40
2023-03-25T10:07:36.136Z,18.30
2023-03-25T10:10:02.942Z,18.40
2023-03-25T10:12:33.961Z,18.50
2023-03-25T10:15:20.399Z,18.40
2023-03-25T10:18:04.152Z,18.40
2023-03-25T10:20:39.015Z,18.40
2023-03-25T10:23:14.110Z,18.40
2023-03-25T10:25:45.781Z,18.50
2023-03-25T10:28:18.088Z,18.40
2023-03-25T10:30:48.892Z,18.40
2023-03-25T10:33:19.001Z,18.80
2023-03-25T10:35:47.703Z,18.40
2023-03-25T10:38:21.492Z,18.50
2023-03-25T10:40:50.475Z,18.40
2023-03-25T10:43:23.390Z,18.40
2023-03-25T10:45:51.998Z,18.40
2023-03-25T10:48:26.119Z,18.40
2023-03-25T10:50:55.717Z,18.50
2023-03-25T10:53:24.257Z,18.50
2023-03-25T10:55:55.510Z,18.60
2023-03-25T10:58:22.160Z,18.60
2023-03-25T11:00:48.913Z,18.60
2023-03-25T11:03:33.716Z,18.70
2023-03-25T11:06:00.404Z,18.70
2023-03-25T11:08:27.264Z,18.80
2023-03-25T11:10:58.421Z,18.70
2023-03-25T11:13:26.790Z,18.70
2023-03-25T11:15:54.923Z,18.60
2023-03-25T11:18:34.889Z,18.60
2023-03-25T11:21:03.473Z,18.60
2023-03-25T11:23:51.619Z,18.60
2023-03-25T11:26:25.807Z,18.50
2023-03-25T11:28:56.207Z,18.50
2023-03-25T11:31:27.413Z,18.50
2023-03-25T11:34:21.123Z,18.50
2023-03-25T11:36:52.595Z,18.50
2023-03-25T11:39:25.889Z,18.50
2023-03-25T11:41:52.804Z,18.50
2023-03-25T11:44:26.099Z,18.50
2023-03-25T11:46:55.519Z,18.50
2023-03-25T11:49:22.967Z,18.50
2023-03-25T11:51:52.586Z,18.50
2023-03-25T11:54:19.568Z,18.50
2023-03-25T11:56:49.122Z,18.80
2023-03-25T11:59:24.643Z,18.50
2023-03-25T12:01:52.484Z,18.50
2023-03-25T12:04:23.540Z,18.50
2023-03-25T12:07:06.186Z,18.50
2023-03-25T12:09:32.924Z,18.50
2023-03-25T12:11:59.524Z,18.40
2023-03-25T12:14:33.048Z,18.50
2023-03-25T12:17:14.196Z,18.50
2023-03-25T12:19:55.904Z,18.50
2023-03-25T12:22:22.495Z,18.50
2023-03-25T12:24:56.592Z,18.50
2023-03-25T12:27:35.179Z,18.50
2023-03-25T12:30:12.333Z,18.50
2023-03-25T12:32:48.133Z,18.50
2023-03-25T12:35:21.175Z,18.50
2023-03-25T12:38:17.045Z,18.50
2023-03-25T12:41:16.093Z,18.50
2023-03-25T12:44:03.003Z,18.50
2023-03-25T12:46:37.735Z,18.70
2023-03-25T12:49:21.345Z,18.50
2023-03-25T12:52:06.914Z,18.50
2023-03-25T12:54:36.548Z,18.50
2023-03-25T12:57:09.345Z,18.40
2023-03-25T12:59:48.183Z,18.50
2023-03-25T13:02:20.777Z,18.40
2023-03-25T13:05:14.012Z,18.40
2023-03-25T13:07:44.884Z,18.50
2023-03-25T13:10:11.527Z,18.40
2023-03-25T13:12:43.426Z,18.40
2023-03-25T13:15:26.049Z,18.50
2023-03-25T13:18:12.787Z,18.50
2023-03-25T13:20:42.638Z,18.40
2023-03-25T13:23:13.845Z,18.40
2023-03-25T13:25:46.520Z,18.40
2023-03-25T13:28:16.055Z,18.40
2023-03-25T13:30:45.141Z,18.50
2023-03-25T13:33:15.627Z,18.50
2023-03-25T13:35:50.464Z,18.60
2023-03-25T13:38:33.980Z,18.60
2023-03-25T13:41:06.612Z,18.70
2023-03-25T13:43:37.467Z,18.80
2023-03-25T13:46:09.380Z,18.80
2023-03-25T13:48:47.086Z,18.80
2023-03-25T13:51:13.787Z,18.70
2023-03-25T13:53:44.124Z,18.70
2023-03-25T13:56:22.639Z,18.70
2023-03-25T13:59:05.591Z,18.60
2023-03-25T14:01:49.687Z,18.60
2023-03-25T14:04:34.812Z,18.60
2023-03-25T14:07:21.323Z,18.60
2023-03-25T14:10:00.397Z,18.60
2023-03-25T14:12:36.444Z,18.60
2023-03-25T14:15:04.144Z,18.60
2023-03-25T14:17:31.324Z,18.60
2023-03-25T14:19:58.987Z,18.60
2023-03-25T14:22:31.760Z,18.60
2023-03-25T14:24:59.462Z,18.50
2023-03-25T14:27:34.746Z,18.60
2023-03-25T14:30:04.755Z,18.50
2023-03-25T14:32:32.965Z,18.50
2023-03-25T14:35:18.788Z,18.50
2023-03-25T14:37:45.526Z,18.50
2023-03-25T14:43:20.616Z,18.50
2023-03-25T14:46:06.197Z,18.50
2023-03-25T14:48:34.587Z,18.50
2023-03-25T14:51:22.373Z,18.50
2023-03-25T14:53:55.748Z,18.40
2023-03-25T14:56:24.500Z,18.50
2023-03-25T14:58:53.211Z,18.50
2023-03-25T15:01:20.998Z,18.50
2023-03-25T15:03:48.716Z,18.50
2023-03-25T15:06:28.709Z,18.50
2023-03-25T15:08:56.302Z,18.50
2023-03-25T15:11:27.615Z,18.50
2023-03-25T15:13:59.615Z,18.50
2023-03-25T15:16:32.336Z,18.50
2023-03-25T15:19:00.936Z,18.40
2023-03-25T15:21:31.532Z,18.50
2023-03-25T15:23:59.561Z,18.50
2023-03-25T15:26:34.595Z,18.50
2023-03-25T15:29:25.593Z,18.50
2023-03-25T15:32:01.582Z,18.50
2023-03-25T15:34:39.471Z,18.50
2023-03-25T15:37:33.112Z,18.50
2023-03-25T15:40:09.906Z,18.50
2023-03-25T15:42:55.316Z,18.50
2023-03-25T15:45:21.869Z,18.50
2023-03-25T15:48:00.652Z,18.50
2023-03-25T15:50:36.440Z,18.50
2023-03-25T15:53:27.695Z,18.50
2023-03-25T15:56:02.355Z,18.50
2023-03-25T15:58:41.841Z,18.50
2023-03-25T16:01:13.821Z,18.50
2023-03-25T16:03:41.331Z,18.50
2023-03-25T16:06:12.227Z,18.50
2023-03-25T16:08:43.141Z,18.40
2023-03-25T16:11:24.427Z,18.40
2023-03-25T16:14:20.472Z,18.40
2023-03-25T16:16:55.014Z,18.40
2023-03-25T16:19:23.295Z,18.50
2023-03-25T16:21:51.732Z,18.60
2023-03-25T16:24:20.608Z,18.60
2023-03-25T16:26:48.627Z,18.70
2023-03-25T16:29:17.756Z,18.70
2023-03-25T16:31:51.836Z,18.80
2023-03-25T16:34:18.507Z,18.80
2023-03-25T16:36:49.674Z,18.80
2023-03-25T16:39:16.865Z,18.80
2023-03-25T16:41:44.764Z,18.80
2023-03-25T16:44:14.250Z,18.80
2023-03-25T16:46:41.058Z,18.70
2023-03-25T16:49:15.610Z,18.70
2023-03-25T16:51:43.817Z,18.70
2023-03-25T16:54:18.163Z,18.60
2023-03-25T16:56:44.867Z,18.60
2023-03-25T16:59:20.570Z,18.60
2023-03-25T17:01:51.740Z,18.60
2023-03-25T17:04:21.984Z,18.60
2023-03-25T17:06:52.825Z,18.60
2023-03-25T17:09:20.870Z,18.50
2023-03-25T17:11:47.758Z,18.60
2023-03-25T17:14:19.525Z,18.50
2023-03-25T17:16:47.007Z,18.50
2023-03-25T17:19:14.243Z,18.50
2023-03-25T17:21:58.193Z,18.40
2023-03-25T17:24:24.760Z,18.50
2023-03-25T17:26:56.536Z,18.50
2023-03-25T17:29:23.182Z,18.50
2023-03-25T17:31:57.210Z,18.50
2023-03-25T17:34:24.496Z,18.40
2023-03-25T17:36:58.273Z,18.50
2023-03-25T17:39:27.234Z,18.50
2023-03-25T17:42:01.576Z,18.50
2023-03-25T17:44:32.628Z,18.40
2023-03-25T17:46:59.259Z,18.40
2023-03-25T17:49:25.848Z,18.40
2023-03-25T17:51:52.418Z,18.40
2023-03-25T17:54:19.015Z,18.40
2023-03-25T17:56:46.813Z,18.50
2023-03-25T17:59:16.473Z,18.50
2023-03-25T18:01:43.290Z,18.40
2023-03-25T18:04:12.860Z,18.40
2023-03-25T18:06:41.221Z,18.40
2023-03-25T18:09:17.975Z,18.30
2023-03-25T18:11:45.834Z,18.40
2023-03-25T18:14:12.696Z,18.50
2023-03-25T18:16:39.540Z,18.40
2023-03-25T18:19:11.014Z,18.60
2023-03-25T18:21:37.677Z,18.30
2023-03-25T18:24:04.287Z,18.40
2023-03-25T18:26:30.911Z,18.40
2023-03-25T18:28:57.536Z,18.40
2023-03-25T18:31:24.264Z,18.50
2023-03-25T18:33:51.218Z,18.40
2023-03-25T18:36:18.662Z,18.50
2023-03-25T18:38:45.930Z,18.50
2023-03-25T18:41:17.201Z,18.50
2023-03-25T18:43:44.022Z,18.70
2023-03-25T18:46:14.156Z,18.80
2023-03-25T18:48:41.169Z,18.70
2023-03-25T18:51:09.903Z,18.70
2023-03-25T18:53:36.823Z,18.70
2023-03-25T18:56:04.708Z,18.70
2023-03-25T18:58:32.857Z,18.70
2023-03-25T19:01:00.241Z,18.70
2023-03-25T19:03:31.427Z,18.60
2023-03-25T19:05:59.182Z,18.60
2023-03-25T19:08:26.448Z,18.60
2023-03-25T19:10:57.403Z,18.60
2023-03-25T19:13:28.740Z,18.60
2023-03-25T19:15:55.326Z,18.50
2023-03-25T19:18:23.089Z,18.50
2023-03-25T19:20:49.960Z,18.50
2023-03-25T19:23:16.864Z,18.50
2023-03-25T19:25:45.059Z,18.50
2023-03-25T19:28:16.696Z,18.50
2023-03-25T19:30:45.097Z,18.50
2023-03-25T19:33:12.032Z,18.50
2023-03-25T19:35:39.048Z,18.50
2023-03-25T19:38:06.078Z,18.40
2023-03-25T19:40:33.711Z,19.00
2023-03-25T19:43:01.713Z,18.40
2023-03-25T19:45:30.040Z,18.40
2023-03-25T19:47:56.944Z,18.40
2023-03-25T19:50:33.718Z,18.40
2023-03-25T19:53:02.944Z,18.40
2023-03-25T19:55:29.968Z,18.40
2023-03-25T19:57:56.694Z,18.40
2023-03-25T20:00:26.062Z,18.40
2023-03-25T20:03:01.734Z,18.40
2023-03-25T20:05:30.290Z,18.40
2023-03-25T20:07:57.470Z,18.40
2023-03-25T20:10:25.753Z,18.40
2023-03-25T20:12:52.380Z,18.40
2023-03-25T20:15:19.878Z,18.40
2023-03-25T20:17:48.421Z,18.40
2023-03-25T20:20:15.163Z,18.50
2023-03-25T20:22:42.294Z,18.40
2023-03-25T20:25:09.617Z,18.50
2023-03-25T20:27:36.290Z,18.30
2023-03-25T20:30:03.961Z,18.30
2023-03-25T20:32:39.744Z,18.30
2023-03-25T20:35:07.201Z,18.30
2023-03-25T20:37:36.736Z,18.30
2023-03-25T20:40:04.483Z,18.30
2023-03-25T20:42:31.188Z,18.30
2023-03-25T20:44:57.793Z,18.30
2023-03-25T20:47:24.424Z,18.30
2023-03-25T20:49:51.028Z,18.30
2023-03-25T20:52:17.588Z,18.30
2023-03-25T20:54:44.382Z,18.40
2023-03-25T20:57:11.090Z,18.30
2023-03-25T20:59:37.676Z,18.30
2023-03-25T21:02:05.167Z,18.30
2023-03-25T21:04:32.049Z,18.40
2023-03-25T21:06:58.701Z,18.30
2023-03-25T21:09:25.354Z,18.30
2023-03-25T21:11:52.016Z,18.30
2023-03-25T21:14:18.966Z,18.30
2023-03-25T21:16:46.230Z,18.30
2023-03-25T21:19:13.168Z,18.30
2023-03-25T21:21:39.796Z,18.40
2023-03-25T21:24:06.899Z,18.40
2023-03-25T21:26:33.897Z,18.30
2023-03-25T21:29:00.693Z,18.30
2023-03-25T21:31:27.825Z,18.40
2023-03-25T21:33:55.478Z,18.30
2023-03-25T21:36:24.290Z,18.30
2023-03-25T21:38:53.962Z,18.30
2023-03-25T21:41:20.592Z,18.30
2023-03-25T21:43:47.521Z,18.50
2023-03-25T21:46:14.438Z,18.30
2023-03-25T21:48:44.957Z,18.20
2023-03-25T21:51:14.568Z,18.20
2023-03-25T21:53:43.915Z,18.20
2023-03-25T21:56:11.973Z,18.20
2023-03-25T21:58:40.033Z,18.50
2023-03-25T22:01:10.202Z,18.30
2023-03-25T22:03:38.032Z,18.30
2023-03-25T22:06:05.997Z,18.20
2023-03-25T22:08:32.690Z,18.30
2023-03-25T22:11:03.495Z,18.20
2023-03-25T22:13:30.401Z,18.20
2023-03-25T22:15:57.220Z,18.20
2023-03-25T22:18:23.911Z,18.20
2023-03-25T22:20:50.786Z,18.20
2023-03-25T22:23:17.372Z,18.20
2023-03-25T22:25:44.494Z,18.20
2023-03-25T22:28:11.390Z,18.20
2023-03-25T22:30:38.480Z,18.20
2023-03-25T22:33:05.629Z,18.20
2023-03-25T22:35:33.035Z,18.20
2023-03-25T22:37:59.711Z,18.20
2023-03-25T22:40:27.093Z,18.20
2023-03-25T22:42:53.656Z,18.20
2023-03-25T22:45:21.348Z,18.20
2023-03-25T22:47:47.908Z,18.20
2023-03-25T22:50:14.571Z,18.20
2023-03-25T22:52:41.402Z,18.20
2023-03-25T22:55:08.747Z,18.30
2023-03-25T22:57:35.498Z,18.20
2023-03-25T23:00:02.160Z,18.50
2023-03-25T23:02:28.825Z,18.40
2023-03-25T23:04:55.704Z,18.40
2023-03-25T23:07:22.243Z,18.40
2023-03-25T23:09:48.817Z,18.40
2023-03-25T23:12:16.958Z,18.50
2023-03-25T23:14:47.696Z,18.40
2023-03-25T23:17:14.302Z,18.40
2023-03-25T23:19:40.843Z,18.40
2023-03-25T23:22:07.449Z,18.40
2023-03-25T23:24:35.839Z,18.40
2023-03-25T23:27:07.315Z,18.40
2023-03-25T23:29:36.020Z,18.40
2023-03-25T23:32:06.832Z,18.40
2023-03-25T23:34:34.393Z,18.40
2023-03-25T23:37:02.544Z,18.40
2023-03-25T23:39:29.361Z,18.30
2023-03-25T23:41:56.309Z,18.30
2023-03-25T23:44:22.910Z,18.30
2023-03-25T23:46:51.228Z,18.30
2023-03-25T23:49:18.086Z,18.30
2023-03-25T23:51:44.675Z,18.30
2023-03-25T23:54:12.739Z,18.30
2023-03-25T23:56:39.708Z,18.30
2023-03-25T23:59:06.763Z,18.30
